Zircon — V7KN6 — position and weather

sailwx.info

Track history (hours):
 
Tides and Currents Weather Stations Pressure Air Temp Water Temp Dewpoint Dewpoint Depression Visibility Wind Speed Wind Dir Waves Ship Positions

Zircon

Last reported at 2017-Oct-22 10:25 UTC. Time now 2017-Oct-22 22:53 UTC.
Position N 48°03' W 007°36'.

Length 183 m; draft 11.9 m.

Type: Tanker. MMSI: 538006179.

Date/timePositionNaut miles runAvg speedWind from/ knotsBaromVisibWave heightAir tempDewpointWater temp
2017-Oct-22 10:25N 48°03' W 007°36'  
2017-Oct-15 18:09N 39°25' W 030°34'211.3
2017-Oct-15 18:00N 39°24' W 030°35'611.3
2017-Oct-15 17:30N 39°19' W 030°39'611.3
2017-Oct-15 17:00N 39°14' W 030°43'611.4
2017-Oct-15 16:30N 39°09' W 030°46'611.3
2017-Oct-15 16:00N 39°04' W 030°50'611.3
2017-Oct-15 15:29N 38°59' W 030°54'511.2
2017-Oct-15 15:00N 38°54' W 030°57'1110.2
2017-Oct-15 13:56N 38°47' W 031°08'510.8
2017-Oct-15 13:29N 38°43' W 031°11'  
Track history (hours):
 
Tides and Currents Weather Stations Pressure Air Temp Water Temp Dewpoint Dewpoint Depression Visibility Wind Speed Wind Dir Waves Ship Positions

Zircon

Last reported at 2017-Oct-22 10:25 UTC. Time now 2017-Oct-22 22:53 UTC.
Position N 48°03' W 007°36'.

Length 183 m; draft 11.9 m.

Type: Tanker. MMSI: 538006179.

Date/timePositionNaut miles runAvg speedWind from/ knotsBaromVisibWave heightAir tempDewpointWater temp
2017-Oct-22 10:25N 48°03' W 007°36'  
2017-Oct-15 18:09N 39°25' W 030°34'211.3
2017-Oct-15 18:00N 39°24' W 030°35'611.3
2017-Oct-15 17:30N 39°19' W 030°39'611.3
2017-Oct-15 17:00N 39°14' W 030°43'611.4
2017-Oct-15 16:30N 39°09' W 030°46'611.3
2017-Oct-15 16:00N 39°04' W 030°50'611.3
2017-Oct-15 15:29N 38°59' W 030°54'511.2
2017-Oct-15 15:00N 38°54' W 030°57'1110.2
2017-Oct-15 13:56N 38°47' W 031°08'510.8
2017-Oct-15 13:29N 38°43' W 031°11'  

Dump ship's entire track history